createdAt,value
2022-08-16T00:00:22.290Z,17.60
2022-08-16T00:02:52.324Z,17.07
2022-08-16T00:05:22.389Z,17.00
2022-08-16T00:07:57.027Z,18.00
2022-08-16T00:10:26.540Z,17.60
2022-08-16T00:12:56.909Z,16.83
2022-08-16T00:15:51.759Z,17.60
2022-08-16T00:18:26.097Z,16.13
2022-08-16T00:20:58.237Z,16.37
2022-08-16T00:23:34.455Z,17.00
2022-08-16T00:26:35.905Z,18.17
2022-08-16T00:28:55.384Z,16.53
2022-08-16T00:31:24.256Z,16.47
2022-08-16T00:33:51.893Z,15.80
2022-08-16T00:36:20.982Z,16.33
2022-08-16T00:38:48.402Z,15.83
2022-08-16T00:41:17.112Z,17.47
2022-08-16T00:43:45.219Z,16.07
2022-08-16T00:46:34.365Z,17.23
2022-08-16T00:49:17.593Z,16.93
2022-08-16T00:51:47.914Z,16.20
2022-08-16T00:54:26.626Z,16.40
2022-08-16T00:57:00.071Z,16.40
2022-08-16T00:59:32.879Z,15.87
2022-08-16T01:02:30.795Z,15.00
2022-08-16T01:05:10.417Z,16.07
2022-08-16T01:07:51.165Z,16.17
2022-08-16T01:10:32.181Z,15.60
2022-08-16T01:13:23.345Z,15.40
2022-08-16T01:16:14.349Z,15.20
2022-08-16T01:18:53.602Z,16.60
2022-08-16T01:21:22.313Z,16.43
2022-08-16T01:24:01.386Z,16.27
2022-08-16T01:26:34.157Z,16.30
2022-08-16T01:29:09.878Z,18.40
2022-08-16T01:31:42.757Z,17.30
2022-08-16T01:34:24.876Z,18.20
2022-08-16T01:37:07.570Z,16.53
2022-08-16T01:39:37.378Z,16.87
2022-08-16T01:42:07.703Z,18.30
2022-08-16T01:44:40.775Z,17.77
2022-08-16T01:47:10.339Z,18.87
2022-08-16T01:49:43.676Z,18.33
2022-08-16T01:52:30.059Z,18.87
2022-08-16T01:55:24.992Z,18.93
2022-08-16T01:57:56.260Z,18.57
2022-08-16T02:00:29.274Z,17.63
2022-08-16T02:03:00.249Z,19.00
2022-08-16T02:05:30.755Z,18.80
2022-08-16T02:08:01.346Z,19.53
2022-08-16T02:10:29.543Z,20.17
2022-08-16T02:13:02.529Z,20.07
2022-08-16T02:15:38.713Z,19.53
2022-08-16T02:18:13.398Z,20.10
2022-08-16T02:20:49.768Z,20.27
2022-08-16T02:23:22.521Z,20.57
2022-08-16T02:25:51.859Z,19.57
2022-08-16T02:28:23.540Z,21.67
2022-08-16T02:30:52.839Z,22.20
2022-08-16T02:33:43.739Z,21.40
2022-08-16T02:36:47.198Z,22.07
2022-08-16T02:39:09.902Z,20.07
2022-08-16T02:41:39.752Z,21.20
2022-08-16T02:44:08.759Z,22.93
2022-08-16T02:46:37.478Z,22.87
2022-08-16T02:49:07.704Z,23.17
2022-08-16T02:51:38.013Z,24.97
2022-08-16T02:54:10.071Z,24.63
2022-08-16T02:56:38.018Z,24.60
2022-08-16T02:59:11.575Z,24.73
2022-08-16T03:01:43.301Z,26.40
2022-08-16T03:04:39.354Z,24.00
2022-08-16T03:07:11.670Z,25.37
2022-08-16T03:09:44.824Z,25.13
2022-08-16T03:12:16.279Z,26.83
2022-08-16T03:14:44.800Z,25.23
2022-08-16T03:17:13.655Z,26.60
2022-08-16T03:19:48.134Z,26.67
2022-08-16T03:22:29.001Z,26.30
2022-08-16T03:25:02.929Z,26.87
2022-08-16T03:27:33.546Z,25.97
2022-08-16T03:30:16.287Z,24.83
2022-08-16T03:32:51.520Z,25.60
2022-08-16T03:35:33.128Z,24.63
2022-08-16T03:38:32.839Z,25.30
2022-08-16T03:40:56.259Z,24.00
2022-08-16T03:43:51.470Z,26.00
2022-08-16T03:46:45.038Z,24.63
2022-08-16T03:49:06.306Z,26.17
2022-08-16T03:51:35.667Z,28.47
2022-08-16T03:54:12.594Z,28.10
2022-08-16T03:56:56.612Z,26.03
2022-08-16T03:59:25.793Z,26.17
2022-08-16T04:01:59.518Z,26.40
2022-08-16T04:04:33.886Z,27.07
2022-08-16T04:07:07.272Z,28.80
2022-08-16T04:09:38.063Z,28.10
2022-08-16T04:12:10.748Z,27.40
2022-08-16T04:14:46.628Z,29.37
2022-08-16T04:17:17.145Z,26.40
2022-08-16T04:19:46.764Z,28.70
2022-08-16T04:22:17.517Z,28.17
2022-08-16T04:24:54.044Z,30.03
2022-08-16T04:27:24.557Z,28.67
2022-08-16T04:30:02.811Z,27.50
2022-08-16T04:32:33.602Z,25.27
2022-08-16T04:35:15.071Z,26.13
2022-08-16T04:37:46.010Z,23.50
2022-08-16T04:40:25.419Z,25.30
2022-08-16T04:42:55.277Z,23.47
2022-08-16T04:45:36.320Z,21.63
2022-08-16T04:48:10.179Z,26.83
2022-08-16T04:50:49.145Z,27.37
2022-08-16T04:53:19.920Z,26.43
2022-08-16T04:55:53.299Z,28.10
2022-08-16T04:58:45.043Z,26.60
2022-08-16T05:01:12.889Z,27.20
2022-08-16T05:03:59.534Z,25.43
2022-08-16T05:06:42.036Z,25.90
2022-08-16T05:09:24.715Z,25.10
2022-08-16T05:11:57.401Z,25.60
2022-08-16T05:14:45.148Z,25.77
2022-08-16T05:17:14.586Z,24.87
2022-08-16T05:19:46.765Z,25.20
2022-08-16T05:22:28.328Z,23.70
2022-08-16T05:25:00.589Z,23.37
2022-08-16T05:27:28.588Z,24.50
2022-08-16T05:30:00.907Z,23.67
2022-08-16T05:32:45.590Z,22.50
2022-08-16T05:35:16.659Z,21.90
2022-08-16T05:38:32.681Z,20.70
2022-08-16T05:41:02.204Z,19.80
2022-08-16T05:43:43.153Z,20.33
2022-08-16T05:46:30.423Z,19.10
2022-08-16T05:49:06.567Z,17.77
2022-08-16T05:51:41.476Z,17.70
2022-08-16T05:54:13.984Z,18.40
2022-08-16T05:56:42.946Z,18.40
2022-08-16T05:59:11.089Z,20.00
2022-08-16T06:01:40.174Z,18.97
2022-08-16T06:04:13.749Z,18.30
2022-08-16T06:06:57.614Z,18.73
2022-08-16T06:09:43.017Z,19.83
2022-08-16T06:12:26.931Z,17.70
2022-08-16T06:15:07.571Z,17.60
2022-08-16T06:17:42.555Z,17.93
2022-08-16T06:20:23.553Z,15.97
2022-08-16T06:22:57.420Z,16.33
2022-08-16T06:25:36.258Z,16.27
2022-08-16T06:28:09.598Z,16.00
2022-08-16T06:30:43.870Z,14.53
2022-08-16T06:33:40.322Z,13.90
2022-08-16T06:36:11.771Z,13.63
2022-08-16T06:38:55.486Z,13.17
2022-08-16T06:41:40.111Z,14.13
2022-08-16T06:44:20.838Z,12.90
2022-08-16T06:46:50.913Z,13.97
2022-08-16T06:49:20.764Z,15.17
2022-08-16T06:51:48.896Z,14.40
2022-08-16T06:54:21.714Z,14.20
2022-08-16T06:56:52.456Z,13.10
2022-08-16T06:59:25.568Z,13.83
2022-08-16T07:01:58.825Z,13.50
2022-08-16T07:04:32.932Z,14.20
2022-08-16T07:07:14.711Z,13.87
2022-08-16T07:09:43.027Z,13.50
2022-08-16T07:12:10.530Z,12.90
2022-08-16T07:14:42.405Z,13.73
2022-08-16T07:17:13.570Z,13.10
2022-08-16T07:20:02.581Z,13.70
2022-08-16T07:22:42.464Z,12.60
2022-08-16T07:25:24.643Z,13.73
2022-08-16T07:27:53.511Z,13.27
2022-08-16T07:30:39.293Z,11.90
2022-08-16T07:33:48.118Z,12.27
2022-08-16T07:36:07.213Z,11.33
2022-08-16T07:38:37.290Z,12.23
2022-08-16T07:41:09.708Z,10.33
2022-08-16T07:43:41.616Z,11.30
2022-08-16T07:46:39.515Z,10.70
2022-08-16T07:49:02.618Z,10.97
2022-08-16T07:51:37.233Z,10.20
2022-08-16T07:54:09.715Z,9.60
2022-08-16T07:56:43.535Z,10.83
2022-08-16T07:59:11.301Z,10.30
2022-08-16T08:01:40.153Z,9.23
2022-08-16T08:04:13.366Z,9.23
2022-08-16T08:06:44.655Z,9.57
2022-08-16T08:09:16.304Z,9.23
2022-08-16T08:11:59.589Z,8.93
2022-08-16T08:14:29.931Z,9.10
2022-08-16T08:17:01.402Z,7.93
2022-08-16T08:19:30.868Z,10.33
2022-08-16T08:22:02.075Z,9.50
2022-08-16T08:24:38.884Z,8.60
2022-08-16T08:27:22.424Z,10.50
2022-08-16T08:30:50.571Z,9.17
2022-08-16T08:32:58.776Z,8.30
2022-08-16T08:35:31.917Z,9.27
2022-08-16T08:38:01.729Z,10.60
2022-08-16T08:40:32.315Z,10.00
2022-08-16T08:43:12.061Z,9.17
2022-08-16T08:45:52.927Z,9.60
2022-08-16T08:48:32.914Z,9.23
2022-08-16T08:51:09.049Z,8.70
2022-08-16T08:53:43.521Z,6.77
2022-08-16T08:56:23.103Z,7.40
2022-08-16T08:58:58.104Z,7.13
2022-08-16T09:01:42.671Z,7.27
2022-08-16T09:04:24.108Z,6.97
2022-08-16T09:06:53.580Z,7.43
2022-08-16T09:09:25.288Z,6.53
2022-08-16T09:12:06.113Z,7.80
2022-08-16T09:14:51.164Z,5.83
2022-08-16T09:17:45.385Z,6.20
2022-08-16T09:20:14.477Z,6.80
2022-08-16T09:22:51.322Z,6.17
2022-08-16T09:25:26.458Z,7.00
2022-08-16T09:28:09.432Z,6.67
2022-08-16T09:30:44.215Z,6.63
2022-08-16T09:33:20.467Z,6.67
2022-08-16T09:35:53.823Z,7.43
2022-08-16T09:38:32.245Z,7.43
2022-08-16T09:41:02.087Z,6.90
2022-08-16T09:43:59.879Z,6.43
2022-08-16T09:46:33.403Z,6.40
2022-08-16T09:49:08.470Z,6.27
2022-08-16T09:51:37.531Z,6.40
2022-08-16T09:54:32.384Z,6.77
2022-08-16T09:57:01.834Z,7.00
2022-08-16T09:59:38.500Z,5.57
2022-08-16T10:02:27.366Z,7.13
2022-08-16T10:04:56.091Z,5.37
2022-08-16T10:07:44.798Z,4.87
2022-08-16T10:10:18.624Z,4.47
2022-08-16T10:13:07.863Z,3.53
2022-08-16T10:15:36.475Z,4.60
2022-08-16T10:18:56.307Z,4.00
2022-08-16T10:21:02.441Z,4.90
2022-08-16T10:23:29.749Z,3.93
2022-08-16T10:27:16.891Z,5.07
2022-08-16T10:28:44.789Z,4.90
2022-08-16T10:31:16.778Z,5.43
2022-08-16T10:33:58.246Z,5.70
2022-08-16T10:36:37.792Z,4.57
2022-08-16T10:39:08.687Z,4.60
2022-08-16T10:41:36.501Z,4.70
2022-08-16T10:44:04.802Z,5.60
2022-08-16T10:46:41.760Z,4.70
2022-08-16T10:49:12.273Z,4.50
2022-08-16T10:52:02.409Z,4.20
2022-08-16T10:54:30.449Z,4.53
2022-08-16T10:57:04.463Z,4.40
2022-08-16T10:59:44.159Z,4.60
2022-08-16T11:02:59.694Z,4.70
2022-08-16T11:05:15.096Z,5.40
2022-08-16T11:07:53.334Z,6.90
2022-08-16T11:13:57.314Z,5.80
2022-08-16T11:19:06.364Z,6.30
2022-08-16T11:24:42.134Z,5.57
2022-08-16T11:27:21.193Z,6.57
2022-08-16T11:29:55.279Z,6.00
2022-08-16T11:32:31.024Z,6.43
2022-08-16T11:35:13.915Z,6.37
2022-08-16T11:38:46.479Z,6.40
2022-08-16T11:40:44.410Z,8.07
2022-08-16T11:43:17.127Z,7.27
2022-08-16T11:45:53.650Z,9.80
2022-08-16T11:48:24.741Z,9.00
2022-08-16T11:50:52.831Z,10.20
2022-08-16T11:53:21.881Z,8.30
2022-08-16T11:55:54.594Z,7.30
2022-08-16T11:58:26.009Z,6.70
2022-08-16T12:00:57.371Z,6.60
2022-08-16T12:03:34.277Z,6.93
2022-08-16T12:06:30.711Z,7.30
2022-08-16T12:09:02.158Z,7.27
2022-08-16T12:11:32.008Z,7.80
2022-08-16T12:14:04.582Z,8.87
2022-08-16T12:16:35.557Z,16.80
2022-08-16T12:19:10.353Z,13.43
2022-08-16T12:21:58.548Z,14.40
2022-08-16T12:24:28.328Z,14.40
2022-08-16T12:26:57.007Z,14.10
2022-08-16T12:29:25.789Z,10.17
2022-08-16T12:32:01.068Z,8.53
2022-08-16T12:34:50.930Z,8.80
2022-08-16T12:37:21.789Z,8.03
2022-08-16T12:39:56.028Z,8.27
2022-08-16T12:42:35.267Z,8.30
2022-08-16T12:45:19.065Z,7.77
2022-08-16T12:48:31.638Z,7.00
2022-08-16T12:50:54.593Z,6.90
2022-08-16T12:53:25.018Z,7.37
2022-08-16T12:56:00.662Z,7.30
2022-08-16T12:58:49.182Z,7.30
2022-08-16T13:01:22.701Z,7.37
2022-08-16T13:04:11.467Z,7.10
2022-08-16T13:06:44.223Z,6.10
2022-08-16T13:09:23.522Z,6.37
2022-08-16T13:12:07.291Z,6.03
2022-08-16T13:14:41.542Z,5.80
2022-08-16T13:17:19.570Z,5.50
2022-08-16T13:20:09.590Z,5.27
2022-08-16T13:22:46.441Z,4.80
2022-08-16T13:25:21.126Z,5.30
2022-08-16T13:28:02.639Z,4.40
2022-08-16T13:30:41.020Z,4.37
2022-08-16T13:33:18.969Z,4.43
2022-08-16T13:35:56.224Z,4.10
2022-08-16T13:38:53.558Z,4.57
2022-08-16T13:41:22.571Z,4.57
2022-08-16T13:43:59.256Z,4.30
2022-08-16T13:46:30.180Z,4.67
2022-08-16T13:48:58.262Z,5.13
2022-08-16T13:51:29.389Z,4.70
2022-08-16T13:54:03.894Z,4.80
2022-08-16T13:56:39.673Z,5.10
2022-08-16T13:59:13.900Z,4.50
2022-08-16T14:01:55.660Z,4.50
2022-08-16T14:04:29.000Z,5.90
2022-08-16T14:06:58.331Z,5.17
2022-08-16T14:09:28.175Z,4.93
2022-08-16T14:12:00.513Z,5.50
2022-08-16T14:14:29.835Z,5.60
2022-08-16T14:17:02.111Z,6.00
2022-08-16T14:19:30.104Z,5.30
2022-08-16T14:22:14.023Z,5.00
2022-08-16T14:24:46.632Z,5.00
2022-08-16T14:27:22.664Z,5.10
2022-08-16T14:29:52.118Z,4.23
2022-08-16T14:32:32.502Z,5.20
2022-08-16T14:35:07.373Z,4.37
2022-08-16T14:37:36.851Z,5.20
2022-08-16T14:40:06.065Z,4.80
2022-08-16T14:42:33.576Z,4.63
2022-08-16T14:45:05.941Z,4.80
2022-08-16T14:47:37.109Z,4.40
2022-08-16T14:50:13.337Z,4.40
2022-08-16T14:52:55.085Z,5.17
2022-08-16T14:55:26.132Z,4.90
2022-08-16T14:57:54.521Z,4.40
2022-08-16T15:00:27.156Z,4.70
2022-08-16T15:03:04.512Z,4.90
2022-08-16T15:05:32.651Z,4.60
2022-08-16T15:08:00.090Z,5.00
2022-08-16T15:10:29.572Z,3.93
2022-08-16T15:13:01.255Z,3.47
2022-08-16T15:15:30.222Z,3.60
2022-08-16T15:17:58.665Z,3.50
2022-08-16T15:20:32.712Z,3.57
2022-08-16T15:23:02.983Z,3.73
2022-08-16T15:25:41.194Z,4.00
2022-08-16T15:28:30.663Z,3.47
2022-08-16T15:31:03.251Z,4.37
2022-08-16T15:33:33.702Z,3.30
2022-08-16T15:36:02.628Z,3.53
2022-08-16T15:39:02.809Z,3.57
2022-08-16T15:41:38.120Z,3.70
2022-08-16T15:44:12.475Z,3.93
2022-08-16T15:46:54.554Z,3.70
2022-08-16T15:49:37.142Z,4.07
2022-08-16T15:52:14.995Z,3.60
2022-08-16T15:54:52.747Z,3.83
2022-08-16T15:57:24.177Z,3.90
2022-08-16T15:59:56.145Z,3.70
2022-08-16T16:02:39.042Z,4.30
2022-08-16T16:05:09.630Z,4.00
2022-08-16T16:07:45.133Z,4.10
2022-08-16T16:10:29.800Z,4.27
2022-08-16T16:13:00.474Z,4.10
2022-08-16T16:15:31.321Z,4.17
2022-08-16T16:18:05.407Z,4.53
2022-08-16T16:20:52.022Z,4.30
2022-08-16T16:23:24.677Z,4.00
2022-08-16T16:25:54.893Z,4.20
2022-08-16T16:29:06.673Z,3.97
2022-08-16T16:31:14.971Z,4.00
2022-08-16T16:33:45.067Z,4.10
2022-08-16T16:36:16.063Z,4.30
2022-08-16T16:38:47.394Z,4.00
2022-08-16T16:41:23.261Z,4.30
2022-08-16T16:43:53.735Z,3.83
2022-08-16T16:46:42.803Z,4.60
2022-08-16T16:49:14.531Z,4.47
2022-08-16T16:51:44.897Z,4.77
2022-08-16T16:54:22.450Z,4.50
2022-08-16T16:56:57.858Z,4.70
2022-08-16T16:59:28.042Z,4.53
2022-08-16T17:02:39.392Z,4.20
2022-08-16T17:04:48.501Z,4.30
2022-08-16T17:07:17.209Z,4.23
2022-08-16T17:09:46.809Z,4.60
2022-08-16T17:12:57.737Z,4.10
2022-08-16T17:15:36.411Z,4.20
2022-08-16T17:19:15.151Z,4.00
2022-08-16T17:21:05.935Z,4.90
2022-08-16T17:23:59.167Z,4.90
2022-08-16T17:26:21.789Z,4.73
2022-08-16T17:29:10.992Z,4.67
2022-08-16T17:31:40.983Z,5.10
2022-08-16T17:34:30.178Z,4.63
2022-08-16T17:37:00.715Z,4.60
2022-08-16T17:39:35.563Z,5.30
2022-08-16T17:42:25.341Z,4.57
2022-08-16T17:44:54.579Z,4.60
2022-08-16T17:47:26.642Z,4.57
2022-08-16T17:49:54.042Z,5.20
2022-08-16T17:52:21.383Z,4.83
2022-08-16T17:54:48.765Z,5.03
2022-08-16T17:57:16.952Z,5.40
2022-08-16T17:59:44.495Z,5.03
2022-08-16T18:02:42.359Z,5.10
2022-08-16T18:04:59.869Z,5.13
2022-08-16T18:07:27.408Z,4.53
2022-08-16T18:09:54.753Z,4.70
2022-08-16T18:12:44.274Z,5.20
2022-08-16T18:15:13.657Z,5.20
2022-08-16T18:17:41.903Z,5.50
2022-08-16T18:20:34.238Z,5.43
2022-08-16T18:23:07.407Z,5.80
2022-08-16T18:25:36.721Z,5.63
2022-08-16T18:28:04.657Z,6.00
2022-08-16T18:30:32.162Z,5.53
2022-08-16T18:32:59.807Z,5.33
2022-08-16T18:35:28.011Z,5.80
2022-08-16T18:37:56.448Z,6.23
2022-08-16T18:40:24.431Z,5.30
2022-08-16T18:43:13.328Z,5.87
2022-08-16T18:45:43.390Z,5.63
2022-08-16T18:48:12.468Z,5.90
2022-08-16T18:51:04.246Z,5.83
2022-08-16T18:53:31.124Z,5.80
2022-08-16T18:56:00.517Z,6.37
2022-08-16T18:58:30.811Z,6.23
2022-08-16T19:00:58.328Z,6.00
2022-08-16T19:03:32.430Z,6.50
2022-08-16T19:06:07.230Z,6.13
2022-08-16T19:08:39.395Z,6.63
2022-08-16T19:11:08.531Z,6.80
2022-08-16T19:13:37.194Z,7.03
2022-08-16T19:16:04.684Z,6.50
2022-08-16T19:18:36.553Z,7.07
2022-08-16T19:21:06.389Z,7.20
2022-08-16T19:23:37.048Z,7.67
2022-08-16T19:26:10.824Z,7.60
2022-08-16T19:28:50.143Z,6.80
2022-08-16T19:31:29.045Z,8.20
2022-08-16T19:33:57.222Z,8.20
2022-08-16T19:36:35.845Z,7.50
2022-08-16T19:39:13.748Z,7.33
2022-08-16T19:41:44.454Z,8.80
2022-08-16T19:44:12.000Z,8.07
2022-08-16T19:46:43.467Z,8.20
2022-08-16T19:49:16.191Z,8.33
2022-08-16T19:51:47.943Z,7.93
2022-08-16T19:54:16.169Z,8.20
2022-08-16T19:56:43.757Z,8.30
2022-08-16T19:59:21.100Z,9.40
2022-08-16T20:01:52.217Z,9.83
2022-08-16T20:04:22.009Z,9.27
2022-08-16T20:06:50.801Z,10.17
2022-08-16T20:09:21.934Z,10.10
2022-08-16T20:11:51.974Z,10.60
2022-08-16T20:14:25.806Z,10.87
2022-08-16T20:16:59.599Z,9.43
2022-08-16T20:19:28.747Z,10.30
2022-08-16T20:22:00.971Z,10.30
2022-08-16T20:24:34.548Z,9.40
2022-08-16T20:27:06.485Z,10.63
2022-08-16T20:29:34.574Z,10.50
2022-08-16T20:32:02.741Z,11.20
2022-08-16T20:34:30.890Z,11.47
2022-08-16T20:36:58.544Z,14.40
2022-08-16T20:39:26.368Z,14.20
2022-08-16T20:41:54.168Z,15.80
2022-08-16T20:44:22.884Z,16.80
2022-08-16T20:46:52.792Z,15.80
2022-08-16T20:49:20.933Z,16.07
2022-08-16T20:51:51.666Z,16.10
2022-08-16T20:54:19.950Z,16.17
2022-08-16T20:56:47.916Z,15.07
2022-08-16T20:59:15.995Z,16.70
2022-08-16T21:01:46.184Z,16.93
2022-08-16T21:04:25.267Z,18.47
2022-08-16T21:06:55.125Z,18.30
2022-08-16T21:09:24.335Z,22.37
2022-08-16T21:11:53.697Z,21.23
2022-08-16T21:14:21.358Z,22.90
2022-08-16T21:16:48.781Z,24.40
2022-08-16T21:19:16.290Z,22.93
2022-08-16T21:21:43.980Z,21.60
2022-08-16T21:24:13.155Z,19.70
2022-08-16T21:27:06.097Z,23.10
2022-08-16T21:29:40.006Z,23.93
2022-08-16T21:32:19.415Z,23.00
2022-08-16T21:35:08.451Z,23.60
2022-08-16T21:37:35.832Z,24.13
2022-08-16T21:40:04.246Z,24.50
2022-08-16T21:42:36.171Z,22.67
2022-08-16T21:45:04.467Z,24.97
2022-08-16T21:47:32.549Z,24.50
2022-08-16T21:49:59.911Z,21.30
2022-08-16T21:52:28.125Z,26.90
2022-08-16T21:55:22.492Z,21.80
2022-08-16T21:57:49.871Z,24.73
2022-08-16T22:00:19.243Z,28.87
2022-08-16T22:02:51.328Z,27.27
2022-08-16T22:05:18.962Z,29.43
2022-08-16T22:07:46.284Z,29.80
2022-08-16T22:11:04.923Z,28.20
2022-08-16T22:13:01.664Z,26.33
2022-08-16T22:15:29.000Z,30.20
2022-08-16T22:17:59.319Z,25.43
2022-08-16T22:20:28.797Z,25.57
2022-08-16T22:23:11.105Z,27.33
2022-08-16T22:25:41.690Z,28.90
2022-08-16T22:28:11.028Z,28.33
2022-08-16T22:30:38.663Z,29.40
2022-08-16T22:33:17.549Z,29.50
2022-08-16T22:35:48.345Z,29.10
2022-08-16T22:38:54.679Z,28.90
2022-08-16T22:41:04.665Z,27.50
2022-08-16T22:43:33.101Z,28.03
2022-08-16T22:46:00.669Z,27.57
2022-08-16T22:48:28.805Z,28.77
2022-08-16T22:50:56.369Z,27.43
2022-08-16T22:53:26.849Z,30.10
2022-08-16T22:55:54.315Z,29.50
2022-08-16T22:58:33.955Z,31.93
2022-08-16T23:01:09.753Z,28.07
2022-08-16T23:03:38.050Z,32.80
2022-08-16T23:06:06.525Z,28.33
2022-08-16T23:08:39.032Z,26.30
2022-08-16T23:11:14.102Z,29.17
2022-08-16T23:13:50.146Z,29.33
2022-08-16T23:16:33.616Z,30.20
2022-08-16T23:19:05.849Z,34.57
2022-08-16T23:21:34.820Z,32.70
2022-08-16T23:24:02.357Z,33.87
2022-08-16T23:26:45.208Z,31.43
2022-08-16T23:29:23.607Z,31.50
2022-08-16T23:31:55.958Z,34.53
2022-08-16T23:34:24.511Z,35.03
2022-08-16T23:36:52.026Z,36.50
2022-08-16T23:39:19.376Z,33.40
2022-08-16T23:41:46.722Z,34.80
2022-08-16T23:44:56.047Z,34.67
2022-08-16T23:47:02.035Z,35.80
2022-08-16T23:50:00.280Z,32.77
2022-08-16T23:52:38.408Z,37.17
2022-08-16T23:55:07.525Z,35.07
2022-08-16T23:57:35.123Z,34.57
